createdAt,value
2023-02-12T00:01:41.962Z,4.50
2023-02-12T00:04:10.578Z,4.48
2023-02-12T00:06:41.317Z,4.50
2023-02-12T00:09:09.932Z,4.24
2023-02-12T00:11:38.599Z,4.53
2023-02-12T00:14:07.150Z,4.52
2023-02-12T00:16:35.786Z,4.47
2023-02-12T00:19:04.312Z,4.44
2023-02-12T00:21:33.081Z,4.43
2023-02-12T00:24:03.667Z,4.38
2023-02-12T00:26:32.379Z,4.55
2023-02-12T00:29:00.987Z,4.62
2023-02-12T00:31:32.460Z,4.33
2023-02-12T00:34:02.731Z,4.56
2023-02-12T00:36:33.646Z,4.58
2023-02-12T00:39:03.528Z,4.57
2023-02-12T00:41:32.403Z,4.61
2023-02-12T00:44:01.507Z,4.59
2023-02-12T00:46:30.520Z,4.57
2023-02-12T00:48:59.184Z,4.37
2023-02-12T00:51:27.678Z,4.43
2023-02-12T00:53:56.371Z,4.34
2023-02-12T00:56:26.347Z,4.43
2023-02-12T00:58:54.840Z,4.46
2023-02-12T01:01:23.567Z,4.57
2023-02-12T01:03:52.181Z,4.61
2023-02-12T01:06:21.098Z,4.58
2023-02-12T01:08:53.014Z,4.47
2023-02-12T01:11:22.025Z,4.60
2023-02-12T01:13:52.041Z,4.72
2023-02-12T01:16:24.593Z,4.85
2023-02-12T01:18:56.061Z,4.93
2023-02-12T01:21:29.004Z,4.79
2023-02-12T01:23:57.836Z,4.82
2023-02-12T01:26:28.111Z,4.68
2023-02-12T01:29:01.465Z,4.78
2023-02-12T01:31:34.122Z,4.89
2023-02-12T01:34:03.700Z,4.91
2023-02-12T01:36:33.248Z,4.87
2023-02-12T01:39:02.983Z,4.95
2023-02-12T01:41:35.156Z,4.90
2023-02-12T01:44:17.245Z,4.88
2023-02-12T01:46:50.041Z,4.74
2023-02-12T01:49:23.087Z,4.92
2023-02-12T01:51:56.469Z,4.93
2023-02-12T01:54:27.521Z,4.72
2023-02-12T01:56:56.696Z,4.82
2023-02-12T01:59:27.913Z,4.79
2023-02-12T02:01:57.031Z,4.74
2023-02-12T02:04:30.243Z,4.58
2023-02-12T02:07:03.028Z,4.71
2023-02-12T02:09:37.345Z,4.64
2023-02-12T02:12:23.937Z,4.59
2023-02-12T02:14:59.009Z,4.72
2023-02-12T02:17:54.226Z,4.66
2023-02-12T02:21:12.694Z,4.59
2023-02-12T02:24:28.335Z,4.59
2023-02-12T02:27:18.022Z,4.91
2023-02-12T02:30:45.402Z,5.00
2023-02-12T02:33:34.043Z,4.91
2023-02-12T02:36:28.594Z,4.97
2023-02-12T02:39:06.613Z,4.92
2023-02-12T02:41:47.338Z,4.95
2023-02-12T02:44:25.089Z,5.00
2023-02-12T02:46:59.101Z,4.92
2023-02-12T02:49:36.613Z,4.91
2023-02-12T02:52:11.897Z,4.88
2023-02-12T02:54:46.613Z,4.73
2023-02-12T02:57:23.067Z,4.58
2023-02-12T02:59:59.517Z,4.70
2023-02-12T03:02:35.972Z,4.79
2023-02-12T03:05:11.284Z,4.63
2023-02-12T03:07:48.984Z,4.63
2023-02-12T03:10:23.489Z,4.51
2023-02-12T03:12:59.324Z,4.62
2023-02-12T03:15:35.179Z,4.78
2023-02-12T03:18:12.595Z,4.81
2023-02-12T03:20:49.630Z,4.78
2023-02-12T03:23:26.294Z,4.56
2023-02-12T03:26:00.411Z,4.51
2023-02-12T03:28:34.405Z,4.55
2023-02-12T03:31:17.131Z,4.44
2023-02-12T03:34:05.244Z,4.46
2023-02-12T03:36:48.123Z,4.33
2023-02-12T03:39:30.465Z,4.28
2023-02-12T03:42:08.205Z,4.38
2023-02-12T03:44:50.601Z,4.21
2023-02-12T03:47:28.392Z,4.32
2023-02-12T03:50:08.334Z,4.34
2023-02-12T03:52:37.822Z,4.32
2023-02-12T03:55:08.352Z,4.56
2023-02-12T03:57:44.226Z,4.60
2023-02-12T04:00:18.509Z,4.61
2023-02-12T04:02:49.979Z,4.62
2023-02-12T04:05:23.094Z,4.48
2023-02-12T04:07:54.243Z,4.45
2023-02-12T04:10:31.171Z,4.50
2023-02-12T04:13:13.250Z,4.35
2023-02-12T04:16:03.756Z,4.37
2023-02-12T04:18:43.238Z,4.34
2023-02-12T04:21:35.596Z,4.27
2023-02-12T04:24:18.619Z,4.36
2023-02-12T04:26:58.586Z,4.47
2023-02-12T04:29:37.243Z,4.53
2023-02-12T04:32:16.050Z,4.49
2023-02-12T04:34:53.350Z,4.21
2023-02-12T04:37:29.926Z,3.93
2023-02-12T04:40:03.845Z,4.09
2023-02-12T04:42:32.624Z,4.33
2023-02-12T04:45:01.298Z,4.41
2023-02-12T04:47:29.955Z,4.48
2023-02-12T04:49:58.506Z,4.38
2023-02-12T04:52:28.486Z,4.14
2023-02-12T04:54:57.131Z,4.20
2023-02-12T04:57:25.839Z,4.26
2023-02-12T04:59:54.418Z,4.27
2023-02-12T05:02:23.052Z,4.33
2023-02-12T05:04:52.184Z,4.42
2023-02-12T05:07:20.765Z,4.35
2023-02-12T05:09:50.703Z,4.55
2023-02-12T05:12:19.420Z,4.44
2023-02-12T05:14:48.012Z,4.42
2023-02-12T05:17:16.657Z,4.63
2023-02-12T05:19:45.282Z,4.50
2023-02-12T05:22:14.713Z,4.42
2023-02-12T05:24:43.730Z,4.36
2023-02-12T05:27:13.745Z,4.51
2023-02-12T05:29:42.680Z,4.53
2023-02-12T05:32:11.310Z,4.44
2023-02-12T05:34:40.438Z,4.57
2023-02-12T05:37:08.953Z,4.45
2023-02-12T05:39:37.863Z,4.64
2023-02-12T05:42:06.746Z,4.33
2023-02-12T05:44:36.928Z,4.49
2023-02-12T05:47:05.703Z,4.58
2023-02-12T05:49:34.652Z,4.53
2023-02-12T05:52:03.231Z,4.52
2023-02-12T05:54:32.091Z,4.46
2023-02-12T05:57:00.595Z,4.50
2023-02-12T05:59:29.138Z,4.43
2023-02-12T06:01:59.301Z,4.41
2023-02-12T06:04:30.224Z,4.30
2023-02-12T06:06:59.009Z,4.32
2023-02-12T06:09:28.202Z,4.31
2023-02-12T06:11:56.906Z,4.28
2023-02-12T06:14:25.479Z,4.31
2023-02-12T06:16:54.386Z,4.51
2023-02-12T06:19:24.714Z,4.47
2023-02-12T06:21:53.269Z,4.45
2023-02-12T06:24:21.873Z,4.47
2023-02-12T06:26:52.524Z,4.43
2023-02-12T06:29:23.356Z,4.36
2023-02-12T06:31:52.011Z,4.44
2023-02-12T06:34:20.616Z,4.42
2023-02-12T06:36:50.885Z,4.38
2023-02-12T06:39:19.511Z,4.36
2023-02-12T06:41:48.088Z,4.42
2023-02-12T06:44:16.680Z,4.44
2023-02-12T06:46:45.344Z,4.51
2023-02-12T06:49:16.223Z,4.71
2023-02-12T06:51:44.896Z,4.89
2023-02-12T06:54:19.370Z,4.74
2023-02-12T06:56:48.066Z,4.83
2023-02-12T06:59:18.594Z,5.01
2023-02-12T07:01:47.130Z,4.95
2023-02-12T07:04:15.740Z,4.97
2023-02-12T07:06:44.278Z,4.88
2023-02-12T07:09:12.787Z,4.82
2023-02-12T07:11:42.707Z,4.93
2023-02-12T07:14:16.899Z,4.90
2023-02-12T07:16:45.640Z,4.82
2023-02-12T07:19:16.419Z,4.85
2023-02-12T07:21:45.036Z,4.73
2023-02-12T07:24:14.806Z,4.65
2023-02-12T07:26:44.907Z,4.57
2023-02-12T07:29:13.731Z,4.80
2023-02-12T07:31:42.901Z,4.88
2023-02-12T07:34:12.899Z,4.75
2023-02-12T07:36:42.190Z,4.56
2023-02-12T07:39:14.071Z,4.83
2023-02-12T07:41:44.072Z,5.05
2023-02-12T07:44:14.262Z,5.02
2023-02-12T07:46:48.148Z,5.06
2023-02-12T07:49:21.495Z,5.24
2023-02-12T07:51:51.570Z,5.30
2023-02-12T07:54:20.386Z,5.47
2023-02-12T07:56:51.000Z,5.66
2023-02-12T07:59:21.394Z,5.82
2023-02-12T08:01:52.470Z,5.73
2023-02-12T08:04:24.814Z,5.85
2023-02-12T08:06:56.559Z,5.83
2023-02-12T08:09:27.744Z,5.56
2023-02-12T08:11:57.947Z,5.76
2023-02-12T08:14:28.498Z,5.97
2023-02-12T08:16:57.352Z,6.11
2023-02-12T08:19:26.895Z,6.14
2023-02-12T08:21:58.467Z,5.89
2023-02-12T08:24:27.259Z,5.65
2023-02-12T08:26:57.621Z,6.00
2023-02-12T08:29:29.968Z,6.16
2023-02-12T08:32:01.333Z,6.47
2023-02-12T08:34:32.470Z,6.78
2023-02-12T08:37:01.319Z,6.56
2023-02-12T08:39:31.530Z,6.84
2023-02-12T08:42:02.518Z,7.29
2023-02-12T08:44:31.407Z,7.37
2023-02-12T08:47:00.133Z,7.41
2023-02-12T08:49:31.064Z,7.57
2023-02-12T08:52:02.608Z,7.28
2023-02-12T08:54:32.761Z,7.00
2023-02-12T08:57:04.373Z,7.33
2023-02-12T08:59:33.147Z,7.47
2023-02-12T09:02:01.931Z,7.68
2023-02-12T09:04:31.080Z,7.58
2023-02-12T09:07:00.090Z,7.48
2023-02-12T09:09:29.046Z,7.48
2023-02-12T09:11:57.608Z,7.39
2023-02-12T09:14:27.682Z,7.46
2023-02-12T09:16:58.244Z,7.73
2023-02-12T09:19:28.208Z,7.79
2023-02-12T09:21:57.610Z,7.71
2023-02-12T09:24:27.978Z,7.92
2023-02-12T09:26:57.012Z,8.19
2023-02-12T09:29:27.069Z,7.91
2023-02-12T09:31:55.974Z,7.80
2023-02-12T09:34:24.660Z,7.97
2023-02-12T09:36:53.262Z,8.16
2023-02-12T09:39:22.016Z,8.34
2023-02-12T09:42:44.798Z,8.25
2023-02-12T09:45:22.630Z,8.09
2023-02-12T09:48:06.106Z,7.97
2023-02-12T09:50:50.634Z,7.75
2023-02-12T09:53:24.342Z,7.56
2023-02-12T09:55:53.297Z,7.78
2023-02-12T09:58:35.502Z,7.70
2023-02-12T10:01:13.949Z,7.71
2023-02-12T10:03:44.302Z,7.75
2023-02-12T10:06:17.553Z,8.11
2023-02-12T10:09:20.449Z,8.26
2023-02-12T10:12:01.687Z,8.37
2023-02-12T10:15:07.340Z,8.63
2023-02-12T10:17:45.289Z,8.62
2023-02-12T10:20:59.038Z,8.93
2023-02-12T10:24:15.696Z,9.27
2023-02-12T10:26:49.641Z,9.58
2023-02-12T10:29:24.233Z,9.70
2023-02-12T10:31:58.587Z,9.83
2023-02-12T10:34:35.473Z,10.05
2023-02-12T10:37:19.575Z,10.15
2023-02-12T10:39:56.465Z,10.38
2023-02-12T10:42:39.432Z,10.60
2023-02-12T10:45:15.218Z,10.84
2023-02-12T10:47:45.663Z,10.95
2023-02-12T10:50:29.649Z,10.68
2023-02-12T10:53:03.515Z,10.62
2023-02-12T10:55:36.847Z,10.39
2023-02-12T10:58:20.363Z,10.36
2023-02-12T11:00:59.485Z,10.52
2023-02-12T11:03:35.974Z,10.71
2023-02-12T11:06:19.608Z,10.85
2023-02-12T11:08:48.481Z,10.60
2023-02-12T11:11:22.578Z,10.64
2023-02-12T11:13:59.642Z,11.04
2023-02-12T11:16:31.863Z,10.86
2023-02-12T11:19:04.822Z,10.70
2023-02-12T11:21:36.665Z,10.83
2023-02-12T11:24:33.253Z,11.14
2023-02-12T11:27:24.702Z,11.12
2023-02-12T11:30:16.027Z,11.43
2023-02-12T11:32:46.580Z,11.61
2023-02-12T11:35:24.098Z,12.04
2023-02-12T11:37:58.724Z,12.30
2023-02-12T11:40:44.514Z,11.57
2023-02-12T11:43:25.990Z,11.87
2023-02-12T11:45:57.841Z,12.00
2023-02-12T11:48:33.958Z,12.07
2023-02-12T11:51:08.964Z,12.00
2023-02-12T11:53:48.410Z,11.81
2023-02-12T11:56:17.778Z,11.76
2023-02-12T11:58:47.924Z,11.55
2023-02-12T12:01:23.187Z,11.62
2023-02-12T12:04:01.769Z,11.48
2023-02-12T12:06:39.610Z,11.69
2023-02-12T12:09:21.145Z,11.38
2023-02-12T12:12:03.631Z,11.61
2023-02-12T12:14:59.227Z,11.77
2023-02-12T12:17:59.895Z,11.61
2023-02-12T12:20:36.728Z,11.57
2023-02-12T12:23:16.626Z,11.62
2023-02-12T12:25:53.761Z,11.66
2023-02-12T12:28:33.557Z,11.79
2023-02-12T12:31:12.460Z,12.07
2023-02-12T12:33:47.328Z,12.12
2023-02-12T12:36:56.795Z,12.45
2023-02-12T12:39:37.190Z,12.83
2023-02-12T12:42:51.494Z,13.20
2023-02-12T12:45:45.525Z,13.61
2023-02-12T12:48:32.763Z,13.56
2023-02-12T12:51:37.789Z,13.79
2023-02-12T12:54:26.959Z,13.58
2023-02-12T12:57:11.565Z,13.84
2023-02-12T13:00:09.837Z,13.81
2023-02-12T13:03:24.589Z,13.77
2023-02-12T13:06:16.347Z,13.55
2023-02-12T13:09:12.400Z,13.64
2023-02-12T13:11:58.352Z,13.89
2023-02-12T13:14:41.137Z,14.12
2023-02-12T13:17:23.366Z,14.37
2023-02-12T13:20:10.001Z,13.81
2023-02-12T13:22:49.878Z,14.42
2023-02-12T13:25:30.865Z,14.91
2023-02-12T13:28:03.283Z,14.74
2023-02-12T13:30:40.540Z,14.68
2023-02-12T13:33:21.688Z,14.71
2023-02-12T13:35:56.624Z,14.88
2023-02-12T13:38:32.244Z,15.24
2023-02-12T13:41:06.787Z,15.28
2023-02-12T13:43:55.545Z,15.53
2023-02-12T13:46:37.635Z,15.60
2023-02-12T13:49:30.685Z,15.56
2023-02-12T13:52:11.673Z,15.46
2023-02-12T13:54:56.924Z,15.22
2023-02-12T13:57:25.743Z,14.99
2023-02-12T13:59:55.872Z,14.96
2023-02-12T14:02:45.937Z,14.73
2023-02-12T14:05:28.327Z,14.46
2023-02-12T14:08:01.895Z,14.30
2023-02-12T14:10:36.012Z,14.29
2023-02-12T14:13:22.106Z,13.28
2023-02-12T14:15:54.413Z,13.63
2023-02-12T14:18:35.114Z,13.65
2023-02-12T14:21:44.878Z,13.02
2023-02-12T14:24:53.895Z,13.11
2023-02-12T14:27:43.105Z,13.15
2023-02-12T14:30:32.719Z,13.28
2023-02-12T14:33:26.025Z,13.14
2023-02-12T14:36:18.610Z,13.17
2023-02-12T14:39:06.977Z,12.98
2023-02-12T14:41:38.676Z,12.85
2023-02-12T14:44:47.429Z,12.50
2023-02-12T14:47:53.771Z,12.41
2023-02-12T14:50:39.471Z,12.25
2023-02-12T14:53:26.947Z,12.07
2023-02-12T14:55:59.261Z,11.95
2023-02-12T14:58:31.548Z,12.04
2023-02-12T15:01:02.685Z,11.93
2023-02-12T15:03:43.151Z,11.88
2023-02-12T15:06:18.335Z,11.87
2023-02-12T15:08:53.918Z,11.69
2023-02-12T15:11:39.416Z,11.57
2023-02-12T15:14:16.939Z,11.34
2023-02-12T15:17:00.221Z,11.21
2023-02-12T15:19:42.635Z,11.02
2023-02-12T15:22:25.912Z,10.76
2023-02-12T15:24:54.581Z,10.46
2023-02-12T15:27:25.876Z,10.50
2023-02-12T15:29:55.613Z,10.40
2023-02-12T15:32:29.699Z,10.31
2023-02-12T15:34:58.684Z,10.28
2023-02-12T15:37:30.761Z,10.19
2023-02-12T15:40:03.781Z,10.26
2023-02-12T15:42:37.834Z,10.20
2023-02-12T15:45:23.185Z,10.13
2023-02-12T15:48:14.457Z,9.95
2023-02-12T15:50:53.486Z,9.75
2023-02-12T15:53:25.336Z,9.72
2023-02-12T15:55:54.858Z,9.54
2023-02-12T15:58:29.781Z,9.33
2023-02-12T16:01:03.940Z,9.21
2023-02-12T16:03:36.183Z,9.12
2023-02-12T16:06:11.537Z,9.00
2023-02-12T16:08:42.457Z,8.80
2023-02-12T16:11:15.528Z,8.73
2023-02-12T16:13:49.717Z,8.54
2023-02-12T16:16:29.056Z,8.42
2023-02-12T16:19:18.584Z,8.18
2023-02-12T16:21:52.971Z,8.01
2023-02-12T16:24:31.264Z,7.93
2023-02-12T16:27:08.274Z,7.76
2023-02-12T16:29:46.710Z,7.52
2023-02-12T16:32:31.715Z,7.30
2023-02-12T16:35:04.375Z,7.26
2023-02-12T16:37:47.949Z,7.07
2023-02-12T16:40:28.627Z,6.89
2023-02-12T16:43:04.179Z,6.69
2023-02-12T16:45:44.141Z,6.55
2023-02-12T16:48:25.177Z,6.37
2023-02-12T16:50:57.845Z,6.18
2023-02-12T16:53:42.990Z,6.08
2023-02-12T16:56:18.200Z,6.02
2023-02-12T16:58:50.757Z,5.85
2023-02-12T17:01:26.188Z,5.74
2023-02-12T17:03:57.748Z,5.82
2023-02-12T17:06:29.799Z,5.92
2023-02-12T17:08:59.301Z,5.88
2023-02-12T17:11:29.805Z,5.96
2023-02-12T17:13:58.535Z,6.02
2023-02-12T17:16:31.490Z,5.98
2023-02-12T17:19:01.263Z,5.87
2023-02-12T17:21:38.066Z,6.03
2023-02-12T17:24:10.094Z,6.05
2023-02-12T17:26:38.847Z,5.83
2023-02-12T17:29:07.482Z,5.79
2023-02-12T17:31:37.995Z,5.57
2023-02-12T17:34:07.641Z,5.52
2023-02-12T17:36:36.905Z,5.50
2023-02-12T17:39:09.645Z,5.40
2023-02-12T17:41:38.177Z,5.41
2023-02-12T17:44:07.246Z,5.44
2023-02-12T17:46:37.304Z,5.44
2023-02-12T17:49:06.211Z,5.44
2023-02-12T17:51:34.884Z,5.43
2023-02-12T17:54:04.314Z,5.58
2023-02-12T17:56:33.166Z,5.49
2023-02-12T17:59:02.127Z,5.47
2023-02-12T18:01:31.020Z,5.40
2023-02-12T18:04:01.261Z,5.39
2023-02-12T18:06:31.920Z,5.16
2023-02-12T18:09:02.762Z,5.06
2023-02-12T18:11:33.083Z,5.01
2023-02-12T18:14:02.240Z,4.87
2023-02-12T18:16:33.973Z,4.82
2023-02-12T18:19:05.716Z,4.77
2023-02-12T18:21:35.099Z,4.78
2023-02-12T18:24:04.616Z,4.72
2023-02-12T18:26:33.914Z,4.69
2023-02-12T18:29:02.788Z,4.42
2023-02-12T18:31:32.175Z,4.44
2023-02-12T18:34:00.874Z,4.38
2023-02-12T18:36:30.882Z,4.44
2023-02-12T18:39:00.985Z,4.47
2023-02-12T18:41:32.937Z,4.57
2023-02-12T18:44:01.546Z,4.62
2023-02-12T18:46:32.641Z,4.58
2023-02-12T18:49:02.561Z,4.37
2023-02-12T18:51:36.626Z,4.46
2023-02-12T18:54:08.277Z,4.57
2023-02-12T18:56:43.532Z,4.58
2023-02-12T18:59:15.796Z,4.56
2023-02-12T19:01:46.384Z,4.73
2023-02-12T19:04:16.995Z,4.80
2023-02-12T19:06:50.295Z,4.60
2023-02-12T19:09:24.141Z,4.60
2023-02-12T19:11:56.355Z,4.72
2023-02-12T19:14:26.374Z,4.64
2023-02-12T19:16:55.280Z,4.63
2023-02-12T19:19:24.029Z,4.40
2023-02-12T19:21:54.696Z,4.48
2023-02-12T19:24:23.437Z,4.40
2023-02-12T19:26:53.635Z,4.54
2023-02-12T19:29:22.301Z,4.54
2023-02-12T19:31:51.215Z,4.63
2023-02-12T19:34:24.749Z,4.47
2023-02-12T19:36:55.815Z,4.47
2023-02-12T19:39:25.844Z,4.46
2023-02-12T19:41:56.245Z,4.32
2023-02-12T19:44:26.772Z,4.32
2023-02-12T19:46:56.898Z,4.22
2023-02-12T19:49:29.182Z,4.22
2023-02-12T19:51:59.694Z,4.10
2023-02-12T19:54:28.978Z,4.20
2023-02-12T19:56:57.806Z,4.38
2023-02-12T19:59:27.544Z,4.17
2023-02-12T20:01:56.677Z,4.30
2023-02-12T20:04:26.569Z,4.49
2023-02-12T20:06:55.398Z,4.39
2023-02-12T20:09:25.852Z,4.23
2023-02-12T20:11:55.295Z,4.06
2023-02-12T20:14:24.267Z,4.44
2023-02-12T20:16:57.403Z,4.30
2023-02-12T20:19:29.628Z,4.51
2023-02-12T20:22:01.487Z,4.33
2023-02-12T20:24:34.509Z,4.44
2023-02-12T20:27:04.992Z,4.60
2023-02-12T20:29:33.881Z,4.37
2023-02-12T20:32:02.607Z,4.59
2023-02-12T20:34:34.750Z,4.57
2023-02-12T20:37:11.595Z,4.57
2023-02-12T20:39:42.707Z,4.68
2023-02-12T20:42:11.940Z,4.61
2023-02-12T20:44:40.563Z,4.63
2023-02-12T20:47:09.240Z,4.67
2023-02-12T20:49:38.157Z,4.63
2023-02-12T20:52:07.006Z,4.67
2023-02-12T20:54:37.966Z,4.59
2023-02-12T20:57:08.376Z,4.59
2023-02-12T20:59:37.165Z,4.49
2023-02-12T21:02:06.281Z,4.45
2023-02-12T21:04:35.368Z,4.62
2023-02-12T21:07:07.011Z,4.58
2023-02-12T21:09:35.544Z,4.53
2023-02-12T21:12:04.195Z,4.52
2023-02-12T21:14:34.352Z,4.67
2023-02-12T21:17:03.167Z,4.71
2023-02-12T21:19:31.808Z,4.83
2023-02-12T21:22:00.488Z,4.85
2023-02-12T21:24:29.208Z,4.89
2023-02-12T21:26:58.016Z,4.93
2023-02-12T21:29:29.213Z,5.01
2023-02-12T21:32:00.014Z,5.02
2023-02-12T21:34:30.440Z,5.01
2023-02-12T21:36:59.412Z,4.89
2023-02-12T21:39:29.517Z,4.98
2023-02-12T21:42:02.343Z,5.02
2023-02-12T21:44:35.238Z,5.10
2023-02-12T21:47:07.332Z,5.02
2023-02-12T21:49:36.412Z,5.10
2023-02-12T21:52:07.064Z,5.06
2023-02-12T21:54:35.717Z,5.05
2023-02-12T21:57:04.386Z,5.06
2023-02-12T21:59:33.296Z,5.10
2023-02-12T22:02:02.421Z,5.23
2023-02-12T22:04:32.389Z,5.18
2023-02-12T22:07:03.315Z,5.19
2023-02-12T22:09:32.195Z,5.24
2023-02-12T22:12:00.797Z,5.11
2023-02-12T22:14:29.520Z,5.12
2023-02-12T22:16:58.196Z,4.88
2023-02-12T22:19:26.731Z,5.13
2023-02-12T22:21:56.773Z,5.08
2023-02-12T22:24:25.308Z,5.20
2023-02-12T22:26:56.203Z,5.08
2023-02-12T22:29:25.026Z,5.14
2023-02-12T22:31:53.700Z,5.09
2023-02-12T22:34:22.313Z,5.11
2023-02-12T22:36:51.016Z,4.97
2023-02-12T22:39:22.339Z,5.00
2023-02-12T22:41:51.104Z,4.95
2023-02-12T22:44:21.319Z,4.90
2023-02-12T22:46:50.883Z,4.95
2023-02-12T22:49:19.816Z,4.77
2023-02-12T22:51:48.445Z,4.61
2023-02-12T22:54:20.977Z,4.37
2023-02-12T22:56:53.053Z,4.54
2023-02-12T22:59:21.725Z,4.42
2023-02-12T23:01:50.353Z,4.40
2023-02-12T23:04:20.207Z,4.37
2023-02-12T23:06:49.026Z,4.24
2023-02-12T23:09:20.269Z,4.16
2023-02-12T23:11:49.702Z,4.11
2023-02-12T23:14:18.596Z,4.08
2023-02-12T23:16:47.912Z,3.88
2023-02-12T23:19:16.899Z,3.89
2023-02-12T23:21:45.490Z,3.97
2023-02-12T23:24:15.460Z,4.07
2023-02-12T23:26:46.080Z,3.96
2023-02-12T23:29:15.480Z,3.88
2023-02-12T23:31:44.264Z,3.96
2023-02-12T23:34:12.954Z,3.79
2023-02-12T23:36:41.645Z,3.74
2023-02-12T23:39:13.583Z,3.79
2023-02-12T23:41:42.235Z,3.71
2023-02-12T23:44:13.531Z,3.70
2023-02-12T23:46:42.246Z,3.69
2023-02-12T23:49:11.001Z,3.85
2023-02-12T23:51:39.681Z,3.85
2023-02-12T23:54:08.278Z,3.79
2023-02-12T23:56:36.785Z,3.87
2023-02-12T23:59:05.525Z,4.00
